createdAt,value
2023-10-09T00:00:57.118Z,1.01
2023-10-09T00:03:25.797Z,0.93
2023-10-09T00:05:55.587Z,0.93
2023-10-09T00:08:31.688Z,0.98
2023-10-09T00:11:15.338Z,0.96
2023-10-09T00:13:50.668Z,0.99
2023-10-09T00:16:25.769Z,0.89
2023-10-09T00:18:55.519Z,0.93
2023-10-09T00:21:26.195Z,0.94
2023-10-09T00:23:57.136Z,0.87
2023-10-09T00:26:27.731Z,1.06
2023-10-09T00:28:56.250Z,1.01
2023-10-09T00:31:31.897Z,0.97
2023-10-09T00:34:09.277Z,0.95
2023-10-09T00:36:52.292Z,0.95
2023-10-09T00:39:35.874Z,0.99
2023-10-09T00:42:07.969Z,1.13
2023-10-09T00:44:40.536Z,1.06
2023-10-09T00:47:22.289Z,0.95
2023-10-09T00:50:00.661Z,1.03
2023-10-09T00:52:38.260Z,1.03
2023-10-09T00:55:15.459Z,1.01
2023-10-09T00:57:58.132Z,1.09
2023-10-09T01:00:34.271Z,1.05
2023-10-09T01:03:20.743Z,0.95
2023-10-09T01:05:58.366Z,0.94
2023-10-09T01:08:31.421Z,1.05
2023-10-09T01:11:10.627Z,0.97
2023-10-09T01:13:54.483Z,0.96
2023-10-09T01:16:25.233Z,0.94
2023-10-09T01:18:55.682Z,0.75
2023-10-09T01:21:27.140Z,0.67
2023-10-09T01:24:11.636Z,0.60
2023-10-09T01:26:46.102Z,0.56
2023-10-09T01:29:20.719Z,0.49
2023-10-09T01:31:56.554Z,0.35
2023-10-09T01:34:36.027Z,0.36
2023-10-09T01:37:06.690Z,0.30
2023-10-09T01:39:41.650Z,0.28
2023-10-09T01:42:11.247Z,0.27
2023-10-09T01:44:44.845Z,0.21
2023-10-09T01:47:19.608Z,0.19
2023-10-09T01:49:50.672Z,0.19
2023-10-09T01:52:19.695Z,0.15
2023-10-09T01:54:54.642Z,0.18
2023-10-09T01:57:25.198Z,0.17
2023-10-09T01:59:55.815Z,0.10
2023-10-09T02:02:29.083Z,-0.01
2023-10-09T02:05:08.976Z,-0.04
2023-10-09T02:07:45.761Z,0.00
2023-10-09T02:10:33.697Z,0.04
2023-10-09T02:13:08.203Z,-0.04
2023-10-09T02:15:53.221Z,-0.19
2023-10-09T02:18:41.669Z,-0.31
2023-10-09T02:21:17.189Z,-0.21
2023-10-09T02:23:51.226Z,-0.13
2023-10-09T02:26:27.287Z,-0.15
2023-10-09T02:29:01.566Z,-0.34
2023-10-09T02:31:37.717Z,-0.50
2023-10-09T02:34:13.655Z,-0.43
2023-10-09T02:36:58.980Z,-0.37
2023-10-09T02:39:28.306Z,-0.26
2023-10-09T02:42:08.297Z,-0.18
2023-10-09T02:44:41.796Z,-0.12
2023-10-09T02:47:19.558Z,-0.12
2023-10-09T02:49:49.685Z,-0.14
2023-10-09T02:52:20.160Z,-0.17
2023-10-09T02:54:49.353Z,-0.16
2023-10-09T02:57:23.499Z,-0.14
2023-10-09T02:59:53.618Z,-0.12
2023-10-09T03:02:24.705Z,-0.08
2023-10-09T03:04:56.764Z,-0.04
2023-10-09T03:07:25.771Z,-0.07
2023-10-09T03:09:54.335Z,-0.16
2023-10-09T03:12:28.172Z,-0.05
2023-10-09T03:15:00.369Z,-0.27
2023-10-09T03:17:31.152Z,-0.18
2023-10-09T03:20:00.992Z,-0.22
2023-10-09T03:22:32.238Z,-0.37
2023-10-09T03:25:00.941Z,-0.20
2023-10-09T03:27:31.128Z,-0.20
2023-10-09T03:29:59.863Z,-0.14
2023-10-09T03:32:28.590Z,-0.22
2023-10-09T03:34:57.205Z,-0.19
2023-10-09T03:37:35.828Z,-0.20
2023-10-09T03:40:08.801Z,-0.10
2023-10-09T03:42:43.440Z,-0.04
2023-10-09T03:45:19.824Z,-0.06
2023-10-09T03:47:50.049Z,0.00
2023-10-09T03:50:28.321Z,0.02
2023-10-09T03:52:57.424Z,0.01
2023-10-09T03:55:29.565Z,0.02
2023-10-09T03:58:01.188Z,0.02
2023-10-09T04:00:32.948Z,0.00
2023-10-09T04:03:02.700Z,0.03
2023-10-09T04:05:31.574Z,0.08
2023-10-09T04:08:03.060Z,0.13
2023-10-09T04:10:54.353Z,0.16
2023-10-09T04:13:35.194Z,0.23
2023-10-09T04:16:28.890Z,0.27
2023-10-09T04:18:58.758Z,0.28
2023-10-09T04:21:35.910Z,0.28
2023-10-09T04:24:22.863Z,0.30
2023-10-09T04:26:57.392Z,0.30
2023-10-09T04:29:38.952Z,0.33
2023-10-09T04:32:19.187Z,0.34
2023-10-09T04:34:51.442Z,0.35
2023-10-09T04:37:25.711Z,0.32
2023-10-09T04:40:13.654Z,0.33
2023-10-09T04:42:48.083Z,0.31
2023-10-09T04:45:42.881Z,0.29
2023-10-09T04:48:12.028Z,0.31
2023-10-09T04:50:58.134Z,0.28
2023-10-09T04:53:30.126Z,0.27
2023-10-09T04:55:58.963Z,0.15
2023-10-09T04:58:28.407Z,0.23
2023-10-09T05:01:13.766Z,0.27
2023-10-09T05:03:46.634Z,0.30
2023-10-09T05:06:33.448Z,0.27
2023-10-09T05:09:10.478Z,0.30
2023-10-09T05:11:57.478Z,0.37
2023-10-09T05:14:40.998Z,0.42
2023-10-09T05:17:17.407Z,0.47
2023-10-09T05:20:17.987Z,0.50
2023-10-09T05:22:58.519Z,0.51
2023-10-09T05:25:46.166Z,0.51
2023-10-09T05:28:33.600Z,0.57
2023-10-09T05:31:07.888Z,0.65
2023-10-09T05:33:40.128Z,0.76
2023-10-09T05:36:24.192Z,0.84
2023-10-09T05:39:00.745Z,0.93
2023-10-09T05:41:46.891Z,1.01
2023-10-09T05:44:33.503Z,1.08
2023-10-09T05:47:20.602Z,1.15
2023-10-09T05:50:04.733Z,1.21
2023-10-09T05:53:05.448Z,1.21
2023-10-09T05:55:51.620Z,1.28
2023-10-09T05:59:05.187Z,1.35
2023-10-09T06:01:51.682Z,1.47
2023-10-09T06:04:22.305Z,1.54
2023-10-09T06:06:58.310Z,1.61
2023-10-09T06:09:40.924Z,1.65
2023-10-09T06:12:27.060Z,1.74
2023-10-09T06:15:20.568Z,1.81
2023-10-09T06:17:52.288Z,1.88
2023-10-09T06:20:39.274Z,1.95
2023-10-09T06:23:18.160Z,2.02
2023-10-09T06:25:52.835Z,2.06
2023-10-09T06:28:34.854Z,2.09
2023-10-09T06:31:24.950Z,2.14
2023-10-09T06:34:07.436Z,2.19
2023-10-09T06:36:37.508Z,2.25
2023-10-09T06:39:21.736Z,2.32
2023-10-09T06:42:10.748Z,2.41
2023-10-09T06:44:55.982Z,2.50
2023-10-09T06:47:26.203Z,2.59
2023-10-09T06:50:08.685Z,2.64
2023-10-09T06:52:54.795Z,2.64
2023-10-09T06:55:35.862Z,2.67
2023-10-09T06:58:11.475Z,2.72
2023-10-09T07:01:17.326Z,2.74
2023-10-09T07:03:53.812Z,2.81
2023-10-09T07:06:46.892Z,2.84
2023-10-09T07:09:20.513Z,2.87
2023-10-09T07:12:05.555Z,2.86
2023-10-09T07:14:51.803Z,2.84
2023-10-09T07:17:40.991Z,2.86
2023-10-09T07:20:37.942Z,2.95
2023-10-09T07:23:19.183Z,3.15
2023-10-09T07:26:02.745Z,3.34
2023-10-09T07:28:44.137Z,3.42
2023-10-09T07:31:25.784Z,3.48
2023-10-09T07:33:59.320Z,3.49
2023-10-09T07:36:40.385Z,3.60
2023-10-09T07:39:17.070Z,3.66
2023-10-09T07:42:03.269Z,3.74
2023-10-09T07:44:38.393Z,3.77
2023-10-09T07:47:24.246Z,3.89
2023-10-09T07:49:55.410Z,3.83
2023-10-09T07:52:24.352Z,3.83
2023-10-09T07:54:54.766Z,3.82
2023-10-09T07:57:30.815Z,3.81
2023-10-09T08:00:13.762Z,3.83
2023-10-09T08:02:42.869Z,3.99
2023-10-09T08:05:21.336Z,4.03
2023-10-09T08:08:08.459Z,4.08
2023-10-09T08:10:58.907Z,4.09
2023-10-09T08:13:45.092Z,4.16
2023-10-09T08:16:21.772Z,4.31
2023-10-09T08:18:52.599Z,4.43
2023-10-09T08:21:42.389Z,4.55
2023-10-09T08:24:31.564Z,4.63
2023-10-09T08:27:14.247Z,4.73
2023-10-09T08:29:48.348Z,4.77
2023-10-09T08:37:26.865Z,4.76
2023-10-09T08:39:55.581Z,4.69
2023-10-09T08:42:25.307Z,4.67
2023-10-09T08:44:54.263Z,4.75
2023-10-09T08:47:25.630Z,4.78
2023-10-09T08:49:54.872Z,4.75
2023-10-09T08:52:23.637Z,4.74
2023-10-09T08:54:52.466Z,4.76
2023-10-09T08:57:21.188Z,4.77
2023-10-09T08:59:50.406Z,4.80
2023-10-09T09:02:19.538Z,4.83
2023-10-09T09:04:52.107Z,4.88
2023-10-09T09:07:35.562Z,4.92
2023-10-09T09:10:19.071Z,5.01
2023-10-09T09:12:54.803Z,5.09
2023-10-09T09:15:28.266Z,5.11
2023-10-09T09:18:08.696Z,5.12
2023-10-09T09:20:41.811Z,5.14
2023-10-09T09:23:13.900Z,5.35
2023-10-09T09:25:47.759Z,5.30
2023-10-09T09:28:21.277Z,5.42
2023-10-09T09:30:52.679Z,5.53
2023-10-09T09:33:31.854Z,5.65
2023-10-09T09:36:05.422Z,5.89
2023-10-09T09:38:43.587Z,5.84
2023-10-09T09:41:14.728Z,6.03
2023-10-09T09:43:45.558Z,5.93
2023-10-09T09:46:17.997Z,5.99
2023-10-09T09:48:48.813Z,5.89
2023-10-09T09:51:21.166Z,5.87
2023-10-09T09:53:50.022Z,5.80
2023-10-09T09:56:22.906Z,5.77
2023-10-09T09:58:55.294Z,5.71
2023-10-09T10:01:27.967Z,5.63
2023-10-09T10:04:02.570Z,5.55
2023-10-09T10:06:35.635Z,5.52
2023-10-09T10:09:04.446Z,5.26
2023-10-09T10:11:46.785Z,5.11
2023-10-09T10:14:23.734Z,5.11
2023-10-09T10:17:07.707Z,5.14
2023-10-09T10:20:02.691Z,5.17
2023-10-09T10:22:34.286Z,5.22
2023-10-09T10:25:10.918Z,5.27
2023-10-09T10:28:02.183Z,5.30
2023-10-09T10:30:38.486Z,5.26
2023-10-09T10:33:17.464Z,5.28
2023-10-09T10:35:47.912Z,5.20
2023-10-09T10:38:40.624Z,5.22
2023-10-09T10:41:20.882Z,5.03
2023-10-09T10:44:22.144Z,5.02
2023-10-09T10:46:53.834Z,4.91
2023-10-09T10:49:24.127Z,4.90
2023-10-09T10:52:03.194Z,4.99
2023-10-09T10:54:48.775Z,5.00
2023-10-09T10:57:30.201Z,5.11
2023-10-09T11:00:14.278Z,5.28
2023-10-09T11:02:45.397Z,5.25
2023-10-09T11:05:25.057Z,5.26
2023-10-09T11:07:59.922Z,5.23
2023-10-09T11:10:33.527Z,5.34
2023-10-09T11:13:19.693Z,5.43
2023-10-09T11:15:57.575Z,5.47
2023-10-09T11:18:28.581Z,5.34
2023-10-09T11:21:19.424Z,5.25
2023-10-09T11:24:21.551Z,5.24
2023-10-09T11:26:56.855Z,5.28
2023-10-09T11:29:51.727Z,5.26
2023-10-09T11:32:23.526Z,5.31
2023-10-09T11:34:54.748Z,5.26
2023-10-09T11:37:40.563Z,5.21
2023-10-09T11:40:25.312Z,5.20
2023-10-09T11:42:58.850Z,5.20
2023-10-09T11:45:30.225Z,5.05
2023-10-09T11:48:00.764Z,4.91
2023-10-09T11:50:44.480Z,4.83
2023-10-09T11:53:46.015Z,4.84
2023-10-09T11:56:18.421Z,4.95
2023-10-09T11:58:51.592Z,4.97
2023-10-09T12:01:21.859Z,5.07
2023-10-09T12:03:52.529Z,5.07
2023-10-09T12:06:24.346Z,5.05
2023-10-09T12:08:55.387Z,5.03
2023-10-09T12:11:30.756Z,5.12
2023-10-09T12:14:02.273Z,5.11
2023-10-09T12:16:34.624Z,5.09
2023-10-09T12:19:04.174Z,5.04
2023-10-09T12:21:32.729Z,5.05
2023-10-09T12:24:02.850Z,5.09
2023-10-09T12:26:36.568Z,5.11
2023-10-09T12:29:12.619Z,5.10
2023-10-09T12:31:41.644Z,5.13
2023-10-09T12:34:10.355Z,5.25
2023-10-09T12:36:39.133Z,5.40
2023-10-09T12:39:07.818Z,5.53
2023-10-09T12:41:42.745Z,5.65
2023-10-09T12:44:16.644Z,5.81
2023-10-09T12:46:53.675Z,5.73
2023-10-09T12:49:26.687Z,5.77
2023-10-09T12:51:57.795Z,5.96
2023-10-09T12:54:29.451Z,6.00
2023-10-09T12:56:59.411Z,5.86
2023-10-09T12:59:29.589Z,5.78
2023-10-09T13:02:00.163Z,5.76
2023-10-09T13:04:33.746Z,5.81
2023-10-09T13:07:07.526Z,5.80
2023-10-09T13:09:37.723Z,5.69
2023-10-09T13:12:06.568Z,5.57
2023-10-09T13:14:36.811Z,5.50
2023-10-09T13:17:11.784Z,5.53
2023-10-09T13:19:40.619Z,5.51
2023-10-09T13:22:14.802Z,5.41
2023-10-09T13:24:44.394Z,5.29
2023-10-09T13:27:13.088Z,5.21
2023-10-09T13:29:43.347Z,5.18
2023-10-09T13:32:16.347Z,5.17
2023-10-09T13:34:47.024Z,5.12
2023-10-09T13:37:20.893Z,5.13
2023-10-09T13:39:54.841Z,5.15
2023-10-09T13:42:26.615Z,5.12
2023-10-09T13:44:56.864Z,5.13
2023-10-09T13:47:33.046Z,5.09
2023-10-09T13:50:02.254Z,5.06
2023-10-09T13:52:32.251Z,5.05
2023-10-09T13:55:16.811Z,5.07
2023-10-09T13:57:46.852Z,5.06
2023-10-09T14:00:33.984Z,5.05
2023-10-09T14:03:13.438Z,5.04
2023-10-09T14:05:53.321Z,5.05
2023-10-09T14:08:24.943Z,5.04
2023-10-09T14:10:53.847Z,5.05
2023-10-09T14:13:27.486Z,5.02
2023-10-09T14:16:01.330Z,5.02
2023-10-09T14:18:31.539Z,4.93
2023-10-09T14:21:06.316Z,4.91
2023-10-09T14:23:36.365Z,4.84
2023-10-09T14:26:07.837Z,4.73
2023-10-09T14:28:38.737Z,4.73
2023-10-09T14:31:13.593Z,4.75
2023-10-09T14:33:44.668Z,4.70
2023-10-09T14:36:15.995Z,4.72
2023-10-09T14:38:44.985Z,4.63
2023-10-09T14:41:13.652Z,4.59
2023-10-09T14:43:42.930Z,4.46
2023-10-09T14:46:18.032Z,4.45
2023-10-09T14:48:47.767Z,4.44
2023-10-09T14:51:16.850Z,4.45
2023-10-09T14:53:45.682Z,4.43
2023-10-09T14:56:17.643Z,4.41
2023-10-09T14:58:48.368Z,4.34
2023-10-09T15:01:21.404Z,4.31
2023-10-09T15:03:54.741Z,4.25
2023-10-09T15:06:25.018Z,4.23
2023-10-09T15:08:53.908Z,4.18
2023-10-09T15:11:25.933Z,4.21
2023-10-09T15:13:55.796Z,4.16
2023-10-09T15:16:28.016Z,4.13
2023-10-09T15:18:58.740Z,4.19
2023-10-09T15:21:34.336Z,4.16
2023-10-09T15:24:03.041Z,4.18
2023-10-09T15:26:34.990Z,4.11
2023-10-09T15:29:08.345Z,4.10
2023-10-09T15:31:41.683Z,4.02
2023-10-09T15:34:10.670Z,4.01
2023-10-09T15:36:39.231Z,3.85
2023-10-09T15:39:12.535Z,3.85
2023-10-09T15:41:42.249Z,3.88
2023-10-09T15:44:11.741Z,3.79
2023-10-09T15:46:42.000Z,3.79
2023-10-09T15:49:13.144Z,3.75
2023-10-09T15:51:41.794Z,3.67
2023-10-09T15:54:13.009Z,3.62
2023-10-09T15:56:46.037Z,3.63
2023-10-09T15:59:19.934Z,3.62
2023-10-09T16:01:50.057Z,3.59
2023-10-09T16:04:18.901Z,3.54
2023-10-09T16:06:47.691Z,3.49
2023-10-09T16:09:16.601Z,3.51
2023-10-09T16:11:45.682Z,3.55
2023-10-09T16:14:17.088Z,3.58
2023-10-09T16:16:46.702Z,3.63
2023-10-09T16:19:16.899Z,3.60
2023-10-09T16:21:46.056Z,3.61
2023-10-09T16:24:16.711Z,3.63
2023-10-09T16:26:47.046Z,3.62
2023-10-09T16:29:16.846Z,3.60
2023-10-09T16:31:45.522Z,3.59
2023-10-09T16:34:16.139Z,3.56
2023-10-09T16:36:47.088Z,3.54
2023-10-09T16:39:23.904Z,3.58
2023-10-09T16:41:55.074Z,3.54
2023-10-09T16:44:23.633Z,3.52
2023-10-09T16:46:55.751Z,3.55
2023-10-09T16:49:26.484Z,3.54
2023-10-09T16:51:58.097Z,3.49
2023-10-09T16:54:28.008Z,3.47
2023-10-09T16:56:58.461Z,3.48
2023-10-09T16:59:27.037Z,3.49
2023-10-09T17:01:56.059Z,3.48
2023-10-09T17:04:28.349Z,3.49
2023-10-09T17:07:00.023Z,3.46
2023-10-09T17:09:28.891Z,3.56
2023-10-09T17:11:59.037Z,3.47
2023-10-09T17:14:28.439Z,3.42
2023-10-09T17:16:58.992Z,3.43
2023-10-09T17:19:27.675Z,3.41
2023-10-09T17:21:58.369Z,3.42
2023-10-09T17:24:27.195Z,3.44
2023-10-09T17:26:57.044Z,3.52
2023-10-09T17:29:28.562Z,3.50
2023-10-09T17:31:58.248Z,3.45
2023-10-09T17:34:28.072Z,3.43
2023-10-09T17:36:58.891Z,3.37
2023-10-09T17:39:28.190Z,3.38
2023-10-09T17:41:57.617Z,3.28
2023-10-09T17:44:26.227Z,3.31
2023-10-09T17:46:54.958Z,3.18
2023-10-09T17:49:25.909Z,3.12
2023-10-09T17:51:54.601Z,3.08
2023-10-09T17:54:24.908Z,3.02
2023-10-09T17:56:53.937Z,2.97
2023-10-09T17:59:22.578Z,2.90
2023-10-09T18:01:51.282Z,2.93
2023-10-09T18:04:19.953Z,2.93
2023-10-09T18:06:49.633Z,2.92
2023-10-09T18:09:18.527Z,2.93
2023-10-09T18:11:49.618Z,2.91
2023-10-09T18:14:18.493Z,2.80
2023-10-09T18:16:49.176Z,2.85
2023-10-09T18:19:21.714Z,2.63
2023-10-09T18:21:52.005Z,2.57
2023-10-09T18:24:20.624Z,2.46
2023-10-09T18:26:51.648Z,2.38
2023-10-09T18:29:20.045Z,2.35
2023-10-09T18:31:50.883Z,2.35
2023-10-09T18:34:21.348Z,2.41
2023-10-09T18:36:52.555Z,2.49
2023-10-09T18:39:24.182Z,2.38
2023-10-09T18:41:55.465Z,2.45
2023-10-09T18:44:24.265Z,2.56
2023-10-09T18:46:55.634Z,2.43
2023-10-09T18:49:24.556Z,2.45
2023-10-09T18:51:53.080Z,2.42
2023-10-09T18:54:22.030Z,2.47
2023-10-09T18:56:50.633Z,2.28
2023-10-09T18:59:24.791Z,1.99
2023-10-09T19:01:54.416Z,1.95
2023-10-09T19:04:24.007Z,1.59
2023-10-09T19:06:53.579Z,1.61
2023-10-09T19:09:24.154Z,1.41
2023-10-09T19:11:52.799Z,1.57
2023-10-09T19:14:23.281Z,1.55
2023-10-09T19:16:52.144Z,1.44
2023-10-09T19:19:20.829Z,1.47
2023-10-09T19:21:49.540Z,1.52
2023-10-09T19:24:18.076Z,1.45
2023-10-09T19:26:47.586Z,1.46
2023-10-09T19:29:17.116Z,1.37
2023-10-09T19:31:47.464Z,1.12
2023-10-09T19:34:16.088Z,1.12
2023-10-09T19:36:48.898Z,1.14
2023-10-09T19:39:18.694Z,1.14
2023-10-09T19:41:54.480Z,1.23
2023-10-09T19:44:23.018Z,1.27
2023-10-09T19:46:53.349Z,1.21
2023-10-09T19:49:22.161Z,1.32
2023-10-09T19:51:52.502Z,1.29
2023-10-09T19:54:22.715Z,1.17
2023-10-09T19:56:51.220Z,0.98
2023-10-09T19:59:19.873Z,0.98
2023-10-09T20:01:49.536Z,0.94
2023-10-09T20:04:20.020Z,0.81
2023-10-09T20:06:48.914Z,0.75
2023-10-09T20:09:18.698Z,0.84
2023-10-09T20:11:48.074Z,0.94
2023-10-09T20:14:19.574Z,0.69
2023-10-09T20:16:50.571Z,0.79
2023-10-09T20:19:20.898Z,0.84
2023-10-09T20:21:49.508Z,0.89
2023-10-09T20:24:18.019Z,1.01
2023-10-09T20:26:46.676Z,1.00
2023-10-09T20:29:15.523Z,1.13
2023-10-09T20:31:46.470Z,1.18
2023-10-09T20:34:15.264Z,1.13
2023-10-09T20:36:45.361Z,1.10
2023-10-09T20:39:14.885Z,1.22
2023-10-09T20:41:43.579Z,1.10
2023-10-09T20:44:29.816Z,1.06
2023-10-09T20:46:59.341Z,0.85
2023-10-09T20:49:32.952Z,0.82
2023-10-09T20:52:03.200Z,0.80
2023-10-09T20:54:32.300Z,0.73
2023-10-09T20:57:01.673Z,0.87
2023-10-09T20:59:30.377Z,0.84
2023-10-09T21:01:59.125Z,0.78
2023-10-09T21:04:27.786Z,0.83
2023-10-09T21:06:56.478Z,0.84
2023-10-09T21:09:26.556Z,0.69
2023-10-09T21:11:55.731Z,0.46
2023-10-09T21:14:24.459Z,0.43
2023-10-09T21:16:53.134Z,0.51
2023-10-09T21:19:22.551Z,0.57
2023-10-09T21:21:51.909Z,0.56
2023-10-09T21:24:21.043Z,0.66
2023-10-09T21:26:51.150Z,0.71
2023-10-09T21:29:20.023Z,0.85
2023-10-09T21:31:50.055Z,0.92
2023-10-09T21:34:18.596Z,0.84
2023-10-09T21:36:47.562Z,0.86
2023-10-09T21:39:19.085Z,0.90
2023-10-09T21:41:48.120Z,0.89
2023-10-09T21:44:18.172Z,0.90
2023-10-09T21:46:47.525Z,0.88
2023-10-09T21:49:16.282Z,0.89
2023-10-09T21:51:45.153Z,0.99
2023-10-09T21:54:13.712Z,1.02
2023-10-09T21:56:42.328Z,0.84
2023-10-09T21:59:13.921Z,0.70
2023-10-09T22:01:44.311Z,0.47
2023-10-09T22:04:13.077Z,0.37
2023-10-09T22:06:41.891Z,0.40
2023-10-09T22:09:15.982Z,0.42
2023-10-09T22:11:45.577Z,0.44
2023-10-09T22:14:15.127Z,0.51
2023-10-09T22:16:46.291Z,0.59
2023-10-09T22:19:15.705Z,0.67
2023-10-09T22:21:49.140Z,0.50
2023-10-09T22:24:19.580Z,0.50
2023-10-09T22:26:52.650Z,0.50
2023-10-09T22:29:21.450Z,0.40
2023-10-09T22:31:56.137Z,0.46
2023-10-09T22:34:27.494Z,0.48
2023-10-09T22:36:56.017Z,0.53
2023-10-09T22:39:28.543Z,0.49
2023-10-09T22:41:57.612Z,0.47
2023-10-09T22:44:26.831Z,0.49
2023-10-09T22:46:58.022Z,0.47
2023-10-09T22:49:34.357Z,0.37
2023-10-09T22:52:03.577Z,0.34
2023-10-09T22:54:36.696Z,0.31
2023-10-09T22:57:07.266Z,0.21
2023-10-09T22:59:45.423Z,0.13
2023-10-09T23:02:24.489Z,0.12
2023-10-09T23:04:57.318Z,0.07
2023-10-09T23:07:26.024Z,0.02
2023-10-09T23:10:16.704Z,0.00
2023-10-09T23:12:49.658Z,0.06
2023-10-09T23:15:32.980Z,0.09
2023-10-09T23:18:11.080Z,0.09
2023-10-09T23:20:51.843Z,-0.04
2023-10-09T23:23:26.522Z,-0.06
2023-10-09T23:25:55.776Z,-0.06
2023-10-09T23:28:38.191Z,-0.05
2023-10-09T23:31:23.518Z,-0.08
2023-10-09T23:33:57.311Z,-0.09
2023-10-09T23:36:30.245Z,-0.18
2023-10-09T23:39:13.552Z,-0.15
2023-10-09T23:41:42.074Z,-0.14
2023-10-09T23:44:10.695Z,-0.33
2023-10-09T23:46:38.658Z,-0.31
2023-10-09T23:49:09.337Z,-0.33
2023-10-09T23:51:41.519Z,-0.42
2023-10-09T23:54:13.504Z,-0.45
2023-10-09T23:56:57.101Z,-0.45
2023-10-09T23:59:40.295Z,-0.38
